Lamont, IA (50650)

10:35 AM CDT on May 24, 2015 (GMT -0500)
IADOT | | Change Station
CLOSE
Current Station
Personal Weather Station
Location: Manchester, IA
Elevation: 1013 ft
Nearby Weather Stations

Elev 1013 ft 42.47 °N, 91.45 °W | Updated 24 minutes ago

Rain
Rain
58 °F
Feels Like 58 °F
N
9
Wind Variable Wind from East
Gusts 17.0 mph

Today
High -- | Low -- °F
--% Chance of Precip.
Yesterday
High -- | Low -- °F
Precip. -- in
5:36 AM 8:30 PM
Waxing Crescent, 40% visible
Pressure 30.05 in
Visibility 3.0 miles
Clouds Scattered Clouds 900 ft
Scattered Clouds 2400 ft
Mostly Cloudy 2800 ft
Dew Point 56 °F
Humidity 93%
Rainfall in
Snow Depth Not available.
UV 4 out of 12
Pollen 3.90 out of 12
Air Quality Not available.
Flu Activity Sporadic
METAR KOLZ 241515Z AUTO 13015G21KT 3SM BR SCT009 SCT024 BKN028 14/14 A3005 RMK AO2

More Conditions Fewer Conditions

Pressure 30.05 in
Visibility 3.0 miles
Clouds Scattered Clouds 900 ft
Scattered Clouds 2400 ft
Mostly Cloudy 2800 ft
Dew Point 56 °F
Humidity 93%
Rainfall in
Snow Depth Not available.
UV 4 out of 12
Pollen 3.90 out of 12
Air Quality Not available.
Flu Activity Sporadic
METAR KOLZ 241515Z AUTO 13015G21KT 3SM BR SCT009 SCT024 BKN028 14/14 A3005 RMK AO2

More Conditions Fewer Conditions

10-Day Weather Forecast

Almanac

Astronomy

May. 24, 2015 Rise Set
Actual Time
Civil Twilight
Nautical Twilight
Astronomical Twilight
Moon
Length of Visible Light
Length of Day
Tomorrow will be .
, % of the Moon is Illuminated

Today's Extremes

State Highs State Lows

Community

WunderPhotos

Upload Photos

1,823,770 photos uploaded!

WunderBlogs® & News

Nearby

Air Quality

  Air Quality AQ Index Pollutant
Not available.

Snow Depth

Station Depth Elevation

Earthquake Activity

City Distance Mag. Time & Date
Minimum magnitude displayed is 2.5.

Coastal Water Temperatures

Place Temperature

Stations

Nearby Weather Stations

Station Location Temp. Windchill Dew Point Humidity Wind Precip. Elev Updated Type